BAW26M EGJJ-LIMJ
Flight info
| Callsign | BAW26M |
|---|---|
| Flight time | 1h 33m |
| Altitude | 34000 |
| Route | CAN UN160 PIGOP UN491 RESMI DCT PEKIM DCT MOKIP DCT MILPA DCT PAS DCT VANAS DCT TOP DCT TESTO |
| Aircraft | A21N/M-SDE3FGHIRWY/LB1 |
Departure
| Time | 2026-04-21 18:01 |
|---|---|
| Airport | Jersey Airport (EGJJ) |
Arrival
| Time | 2026-04-21 19:35 |
|---|---|
| Airport | Genoa Cristoforo Colombo Airport (LIMJ) |
| Time | Latitude | Longitude | Altitude | Speed | Heading |
|---|---|---|---|---|---|
| 2026-04-21 17:32 | 49.20485 | -2.19733 | 270 ft | 0 kts | 354° |
| 2026-04-21 17:53 | 49.20484 | -2.19733 | 270 ft | 0 kts | 355° |
| 2026-04-21 17:53 | 49.20471 | -2.19731 | 270 ft | 2 kts | 353° |
| 2026-04-21 17:53 | 49.20461 | -2.19729 | 270 ft | 2 kts | 346° |
| 2026-04-21 17:54 | 49.20448 | -2.19718 | 270 ft | 2 kts | 310° |
| 2026-04-21 17:54 | 49.20440 | -2.19697 | 270 ft | 2 kts | 281° |
| 2026-04-21 17:54 | 49.20439 | -2.19688 | 270 ft | 0 kts | 269° |
| 2026-04-21 17:54 | 49.20439 | -2.19687 | 270 ft | 0 kts | 268° |
| 2026-04-21 17:58 | 49.20439 | -2.19694 | 270 ft | 3 kts | 268° |
| 2026-04-21 17:58 | 49.20436 | -2.19761 | 269 ft | 8 kts | 265° |
| 2026-04-21 17:58 | 49.20429 | -2.19874 | 267 ft | 10 kts | 277° |
| 2026-04-21 17:59 | 49.20475 | -2.19918 | 268 ft | 8 kts | 353° |
| 2026-04-21 17:59 | 49.20511 | -2.19970 | 268 ft | 9 kts | 287° |
| 2026-04-21 17:59 | 49.20533 | -2.20077 | 268 ft | 12 kts | 287° |
| 2026-04-21 17:59 | 49.20559 | -2.20216 | 267 ft | 15 kts | 286° |
| 2026-04-21 18:00 | 49.20593 | -2.20385 | 263 ft | 18 kts | 288° |
| 2026-04-21 18:00 | 49.20624 | -2.20595 | 252 ft | 22 kts | 275° |
| 2026-04-21 18:00 | 49.20660 | -2.20710 | 245 ft | 13 kts | 343° |
| 2026-04-21 18:00 | 49.20705 | -2.20651 | 250 ft | 8 kts | 88° |
| 2026-04-21 18:01 | 49.20735 | -2.20269 | 266 ft | 71 kts | 83° |
| 2026-04-21 18:01 | 49.20831 | -2.19157 | 276 ft | 134 kts | 82° |
| 2026-04-21 18:01 | 49.20938 | -2.17612 | 678 ft | 149 kts | 85° |
| 2026-04-21 18:01 | 49.21022 | -2.16161 | 1589 ft | 136 kts | 83° |
| 2026-04-21 18:02 | 49.21158 | -2.14764 | 2219 ft | 140 kts | 82° |
| 2026-04-21 18:02 | 49.21315 | -2.13220 | 2626 ft | 155 kts | 82° |
| 2026-04-21 18:02 | 49.21479 | -2.11515 | 3001 ft | 173 kts | 83° |
| 2026-04-21 18:02 | 49.21657 | -2.09607 | 3401 ft | 191 kts | 83° |
| 2026-04-21 18:03 | 49.21852 | -2.07445 | 3783 ft | 215 kts | 83° |
| 2026-04-21 18:03 | 49.22013 | -2.05100 | 4322 ft | 232 kts | 86° |
| 2026-04-21 18:03 | 49.22044 | -2.02596 | 4805 ft | 238 kts | 91° |
| 2026-04-21 18:03 | 49.21991 | -2.00043 | 4977 ft | 242 kts | 91° |
| 2026-04-21 18:04 | 49.21932 | -1.97477 | 4989 ft | 241 kts | 91° |
| 2026-04-21 18:04 | 49.21869 | -1.94912 | 4998 ft | 243 kts | 91° |
| 2026-04-21 18:04 | 49.21802 | -1.92283 | 5338 ft | 250 kts | 91° |
| 2026-04-21 18:04 | 49.21735 | -1.89650 | 6256 ft | 252 kts | 91° |
| 2026-04-21 18:05 | 49.21664 | -1.86965 | 7084 ft | 257 kts | 91° |
| 2026-04-21 18:05 | 49.21594 | -1.84242 | 7843 ft | 264 kts | 91° |
| 2026-04-21 18:05 | 49.21519 | -1.81399 | 8604 ft | 270 kts | 91° |
| 2026-04-21 18:05 | 49.21444 | -1.78515 | 9338 ft | 276 kts | 90° |
| 2026-04-21 18:06 | 49.21370 | -1.75569 | 10045 ft | 282 kts | 90° |
| 2026-04-21 18:06 | 49.21293 | -1.72548 | 10659 ft | 292 kts | 90° |
| 2026-04-21 18:06 | 49.21214 | -1.69381 | 11039 ft | 309 kts | 90° |
| 2026-04-21 18:06 | 49.21129 | -1.66020 | 11387 ft | 327 kts | 90° |
| 2026-04-21 18:07 | 49.21035 | -1.62425 | 11790 ft | 342 kts | 90° |
| 2026-04-21 18:07 | 49.20938 | -1.58787 | 12416 ft | 349 kts | 90° |
| 2026-04-21 18:07 | 49.20837 | -1.55086 | 13079 ft | 354 kts | 90° |
| 2026-04-21 18:07 | 49.20732 | -1.51281 | 13709 ft | 360 kts | 90° |
| 2026-04-21 18:08 | 49.20624 | -1.47480 | 14317 ft | 365 kts | 90° |
| 2026-04-21 18:08 | 49.20512 | -1.43559 | 14953 ft | 370 kts | 89° |
| 2026-04-21 18:08 | 49.20399 | -1.39665 | 15576 ft | 375 kts | 89° |
| 2026-04-21 18:08 | 49.20283 | -1.35631 | 16190 ft | 379 kts | 89° |
| 2026-04-21 18:09 | 49.20165 | -1.31600 | 16793 ft | 384 kts | 90° |
| 2026-04-21 18:09 | 49.20046 | -1.27532 | 17378 ft | 388 kts | 89° |
| 2026-04-21 18:09 | 49.19964 | -1.24772 | 17763 ft | 391 kts | 89° |
| 2026-04-21 18:09 | 49.19797 | -1.19267 | 18520 ft | 396 kts | 89° |
| 2026-04-21 18:10 | 49.19668 | -1.14999 | 19064 ft | 400 kts | 89° |
| 2026-04-21 18:10 | 49.19539 | -1.10797 | 19602 ft | 404 kts | 89° |
| 2026-04-21 18:10 | 49.19404 | -1.06482 | 20130 ft | 408 kts | 89° |
| 2026-04-21 18:10 | 49.19265 | -1.02113 | 20640 ft | 413 kts | 89° |
| 2026-04-21 18:11 | 49.19124 | -0.97755 | 21126 ft | 417 kts | 89° |
| 2026-04-21 18:11 | 49.18978 | -0.93294 | 21611 ft | 422 kts | 89° |
| 2026-04-21 18:11 | 49.18832 | -0.88843 | 22077 ft | 426 kts | 89° |
| 2026-04-21 18:11 | 49.18682 | -0.84323 | 22549 ft | 430 kts | 89° |
| 2026-04-21 18:12 | 49.18528 | -0.79750 | 23020 ft | 433 kts | 89° |
| 2026-04-21 18:12 | 49.18369 | -0.75146 | 23462 ft | 437 kts | 89° |
| 2026-04-21 18:12 | 49.18210 | -0.70519 | 23884 ft | 442 kts | 89° |
| 2026-04-21 18:12 | 49.18045 | -0.65788 | 24348 ft | 445 kts | 89° |
| 2026-04-21 18:13 | 49.17878 | -0.61084 | 24807 ft | 448 kts | 89° |
| 2026-04-21 18:13 | 49.17708 | -0.56348 | 25204 ft | 452 kts | 89° |
| 2026-04-21 18:13 | 49.17529 | -0.51493 | 25633 ft | 455 kts | 90° |
| 2026-04-21 18:13 | 49.17130 | -0.46729 | 26035 ft | 461 kts | 97° |
| 2026-04-21 18:14 | 49.15175 | -0.37324 | 26837 ft | 470 kts | 110° |
| 2026-04-21 18:14 | 49.13895 | -0.32725 | 27205 ft | 473 kts | 112° |
| 2026-04-21 18:14 | 49.12590 | -0.28111 | 27558 ft | 476 kts | 112° |
| 2026-04-21 18:15 | 49.11298 | -0.23461 | 28005 ft | 476 kts | 111° |
| 2026-04-21 18:15 | 49.10034 | -0.18782 | 28371 ft | 478 kts | 111° |
| 2026-04-21 18:15 | 49.08780 | -0.14086 | 28696 ft | 481 kts | 110° |
| 2026-04-21 18:15 | 49.07520 | -0.09363 | 28997 ft | 484 kts | 110° |
| 2026-04-21 18:16 | 49.06245 | -0.04592 | 29300 ft | 487 kts | 111° |
| 2026-04-21 18:16 | 49.04973 | 0.00140 | 29617 ft | 489 kts | 111° |
| 2026-04-21 18:16 | 49.03683 | 0.04930 | 29907 ft | 491 kts | 110° |
| 2026-04-21 18:16 | 49.02386 | 0.09735 | 30204 ft | 494 kts | 110° |
| 2026-04-21 18:17 | 49.01069 | 0.14605 | 30586 ft | 493 kts | 111° |
| 2026-04-21 18:17 | 48.99771 | 0.19392 | 31005 ft | 492 kts | 111° |
| 2026-04-21 18:17 | 48.98465 | 0.24201 | 31393 ft | 491 kts | 111° |
| 2026-04-21 18:17 | 48.97171 | 0.28957 | 31767 ft | 490 kts | 111° |
| 2026-04-21 18:18 | 48.95871 | 0.33718 | 32099 ft | 490 kts | 111° |
| 2026-04-21 18:18 | 48.94563 | 0.38498 | 32403 ft | 491 kts | 111° |
| 2026-04-21 18:18 | 48.93243 | 0.43316 | 32714 ft | 491 kts | 111° |
| 2026-04-21 18:18 | 48.91948 | 0.48041 | 33006 ft | 491 kts | 111° |
| 2026-04-21 18:19 | 48.90636 | 0.52807 | 33315 ft | 491 kts | 111° |
| 2026-04-21 18:19 | 48.89317 | 0.57593 | 33599 ft | 491 kts | 111° |
| 2026-04-21 18:19 | 48.87988 | 0.62404 | 33870 ft | 491 kts | 112° |
| 2026-04-21 18:19 | 48.86687 | 0.67107 | 34064 ft | 491 kts | 112° |
| 2026-04-21 18:20 | 48.85361 | 0.71885 | 34079 ft | 491 kts | 112° |
| 2026-04-21 18:20 | 48.82777 | 0.81473 | 34084 ft | 490 kts | 111° |
| 2026-04-21 18:21 | 48.80224 | 0.91009 | 34082 ft | 490 kts | 111° |
| 2026-04-21 18:21 | 48.77665 | 1.00500 | 34076 ft | 490 kts | 111° |
| 2026-04-21 18:22 | 48.75066 | 1.10090 | 34339 ft | 493 kts | 111° |
| 2026-04-21 18:22 | 48.73761 | 1.14900 | 34635 ft | 492 kts | 111° |
| 2026-04-21 18:22 | 48.72462 | 1.19671 | 34892 ft | 491 kts | 111° |
| 2026-04-21 18:22 | 48.71165 | 1.24420 | 35050 ft | 491 kts | 111° |
| 2026-04-21 18:23 | 48.69883 | 1.29197 | 35074 ft | 490 kts | 109° |
| 2026-04-21 18:23 | 48.67862 | 1.38969 | 35073 ft | 489 kts | 101° |
| 2026-04-21 18:24 | 48.66496 | 1.49024 | 35075 ft | 488 kts | 98° |
| 2026-04-21 18:24 | 48.65189 | 1.59070 | 35079 ft | 489 kts | 98° |
| 2026-04-21 18:25 | 48.63833 | 1.69107 | 35075 ft | 490 kts | 99° |
| 2026-04-21 18:25 | 48.62444 | 1.79168 | 35076 ft | 489 kts | 99° |
| 2026-04-21 18:26 | 48.61053 | 1.89211 | 35085 ft | 489 kts | 99° |
| 2026-04-21 18:26 | 48.59659 | 1.99223 | 35091 ft | 490 kts | 99° |
| 2026-04-21 18:27 | 48.58197 | 2.09243 | 35090 ft | 491 kts | 102° |
| 2026-04-21 18:27 | 48.55982 | 2.18948 | 35092 ft | 493 kts | 112° |
| 2026-04-21 18:28 | 48.52798 | 2.28061 | 35093 ft | 495 kts | 122° |
| 2026-04-21 18:28 | 48.48879 | 2.36656 | 35087 ft | 496 kts | 125° |
| 2026-04-21 18:29 | 48.44944 | 2.45093 | 35088 ft | 496 kts | 124° |
| 2026-04-21 18:29 | 48.41002 | 2.53614 | 35086 ft | 495 kts | 124° |
| 2026-04-21 18:30 | 48.37102 | 2.62051 | 35082 ft | 495 kts | 124° |
| 2026-04-21 18:30 | 48.33150 | 2.70577 | 35076 ft | 495 kts | 125° |
| 2026-04-21 18:31 | 48.29145 | 2.78902 | 35069 ft | 496 kts | 129° |
| 2026-04-21 18:31 | 48.24488 | 2.86538 | 35077 ft | 495 kts | 138° |
| 2026-04-21 18:32 | 48.19315 | 2.93342 | 35076 ft | 495 kts | 141° |
| 2026-04-21 18:32 | 48.14084 | 3.00032 | 35071 ft | 495 kts | 141° |
| 2026-04-21 18:33 | 48.08872 | 3.06730 | 35063 ft | 496 kts | 141° |
| 2026-04-21 18:33 | 48.03650 | 3.13447 | 35048 ft | 496 kts | 141° |
| 2026-04-21 18:34 | 47.98430 | 3.20142 | 35052 ft | 496 kts | 141° |
| 2026-04-21 18:34 | 47.93224 | 3.26806 | 35053 ft | 496 kts | 141° |
| 2026-04-21 18:35 | 47.88853 | 3.32388 | 35044 ft | 495 kts | 141° |
| 2026-04-21 18:35 | 47.82783 | 3.40118 | 35044 ft | 494 kts | 141° |
| 2026-04-21 18:36 | 47.77562 | 3.46743 | 35042 ft | 494 kts | 141° |
| 2026-04-21 18:36 | 47.72337 | 3.53357 | 35035 ft | 494 kts | 141° |
| 2026-04-21 18:37 | 47.67123 | 3.59941 | 35042 ft | 494 kts | 141° |
| 2026-04-21 18:37 | 47.61895 | 3.66519 | 35031 ft | 494 kts | 142° |
| 2026-04-21 18:38 | 47.56644 | 3.73117 | 35037 ft | 494 kts | 142° |
| 2026-04-21 18:38 | 47.51442 | 3.79630 | 35031 ft | 493 kts | 142° |
| 2026-04-21 18:39 | 47.46187 | 3.86191 | 35031 ft | 493 kts | 142° |
| 2026-04-21 18:39 | 47.40963 | 3.92702 | 35025 ft | 493 kts | 142° |
| 2026-04-21 18:40 | 47.35726 | 3.99204 | 35020 ft | 494 kts | 142° |
| 2026-04-21 18:40 | 47.31352 | 4.04627 | 35017 ft | 493 kts | 142° |
| 2026-04-21 18:41 | 47.25224 | 4.12197 | 35013 ft | 495 kts | 142° |
| 2026-04-21 18:41 | 47.19971 | 4.18665 | 35013 ft | 495 kts | 142° |
| 2026-04-21 18:42 | 47.14689 | 4.25159 | 35014 ft | 494 kts | 142° |
| 2026-04-21 18:42 | 47.09450 | 4.31584 | 35016 ft | 493 kts | 142° |
| 2026-04-21 18:43 | 47.04174 | 4.38029 | 35013 ft | 493 kts | 142° |
| 2026-04-21 18:43 | 46.98908 | 4.44445 | 35017 ft | 494 kts | 142° |
| 2026-04-21 18:44 | 46.93635 | 4.50862 | 35015 ft | 495 kts | 142° |
| 2026-04-21 18:44 | 46.88346 | 4.57276 | 35009 ft | 494 kts | 142° |
| 2026-04-21 18:45 | 46.83095 | 4.63631 | 35001 ft | 494 kts | 142° |
| 2026-04-21 18:45 | 46.77817 | 4.69994 | 34996 ft | 494 kts | 143° |
| 2026-04-21 18:46 | 46.72516 | 4.76371 | 34991 ft | 495 kts | 143° |
| 2026-04-21 18:46 | 46.67187 | 4.82766 | 34983 ft | 495 kts | 142° |
| 2026-04-21 18:47 | 46.61913 | 4.89082 | 34978 ft | 494 kts | 143° |
| 2026-04-21 18:47 | 46.56613 | 4.95414 | 34971 ft | 494 kts | 143° |
| 2026-04-21 18:48 | 46.51313 | 5.01741 | 34969 ft | 495 kts | 141° |
| 2026-04-21 18:48 | 46.46627 | 5.09093 | 34966 ft | 498 kts | 125° |
| 2026-04-21 18:49 | 46.43342 | 5.17857 | 34968 ft | 495 kts | 109° |
| 2026-04-21 18:49 | 46.41705 | 5.25728 | 34973 ft | 492 kts | 101° |
| 2026-04-21 18:50 | 46.39751 | 5.36983 | 34968 ft | 492 kts | 101° |
| 2026-04-21 18:50 | 46.38026 | 5.46523 | 34964 ft | 494 kts | 101° |
| 2026-04-21 18:51 | 46.36247 | 5.56107 | 34963 ft | 493 kts | 101° |
| 2026-04-21 18:51 | 46.34462 | 5.65644 | 34964 ft | 493 kts | 102° |
| 2026-04-21 18:52 | 46.32659 | 5.75242 | 34960 ft | 494 kts | 102° |
| 2026-04-21 18:52 | 46.29919 | 5.84381 | 34961 ft | 499 kts | 122° |
| 2026-04-21 18:53 | 46.25412 | 5.91902 | 34969 ft | 496 kts | 142° |
| 2026-04-21 18:53 | 46.19703 | 5.97328 | 34978 ft | 491 kts | 154° |
| 2026-04-21 18:54 | 46.13928 | 6.02613 | 34973 ft | 494 kts | 147° |
| 2026-04-21 18:54 | 46.08400 | 6.08481 | 34979 ft | 495 kts | 146° |
| 2026-04-21 18:55 | 46.03797 | 6.13423 | 34979 ft | 494 kts | 146° |
| 2026-04-21 18:55 | 45.97399 | 6.20260 | 34978 ft | 494 kts | 146° |
| 2026-04-21 18:56 | 45.91847 | 6.26168 | 34979 ft | 499 kts | 146° |
| 2026-04-21 18:56 | 45.86235 | 6.32123 | 34980 ft | 500 kts | 146° |
| 2026-04-21 18:57 | 45.80657 | 6.38025 | 34990 ft | 500 kts | 146° |
| 2026-04-21 18:57 | 45.75058 | 6.43942 | 34991 ft | 500 kts | 146° |
| 2026-04-21 18:58 | 45.69460 | 6.49834 | 34989 ft | 499 kts | 146° |
| 2026-04-21 18:58 | 45.63884 | 6.55695 | 34991 ft | 499 kts | 146° |
| 2026-04-21 18:59 | 45.58266 | 6.61583 | 34986 ft | 500 kts | 146° |
| 2026-04-21 18:59 | 45.52659 | 6.67445 | 34970 ft | 500 kts | 146° |
| 2026-04-21 19:00 | 45.47332 | 6.73839 | 34964 ft | 502 kts | 137° |
| 2026-04-21 19:00 | 45.42670 | 6.81222 | 34965 ft | 502 kts | 128° |
| 2026-04-21 19:01 | 45.38676 | 6.89410 | 34969 ft | 502 kts | 123° |
| 2026-04-21 19:01 | 45.34856 | 6.97652 | 34971 ft | 502 kts | 123° |
| 2026-04-21 19:02 | 45.31002 | 7.05890 | 34967 ft | 501 kts | 123° |
| 2026-04-21 19:02 | 45.27124 | 7.14105 | 34964 ft | 501 kts | 123° |
| 2026-04-21 19:03 | 45.23227 | 7.22312 | 34954 ft | 501 kts | 123° |
| 2026-04-21 19:03 | 45.21270 | 7.26426 | 34739 ft | 505 kts | 123° |
| 2026-04-21 19:03 | 45.19321 | 7.30519 | 33953 ft | 513 kts | 124° |
| 2026-04-21 19:03 | 45.17299 | 7.34755 | 33176 ft | 515 kts | 123° |
| 2026-04-21 19:04 | 45.15307 | 7.38917 | 32784 ft | 508 kts | 123° |
| 2026-04-21 19:04 | 45.13351 | 7.43009 | 32392 ft | 502 kts | 123° |
| 2026-04-21 19:04 | 45.11418 | 7.47048 | 32009 ft | 495 kts | 123° |
| 2026-04-21 19:04 | 45.09501 | 7.51045 | 31458 ft | 487 kts | 123° |
| 2026-04-21 19:05 | 45.07628 | 7.54939 | 30587 ft | 482 kts | 123° |
| 2026-04-21 19:05 | 45.05725 | 7.58895 | 29243 ft | 486 kts | 123° |
| 2026-04-21 19:05 | 45.03850 | 7.62789 | 28508 ft | 483 kts | 123° |
| 2026-04-21 19:05 | 45.01960 | 7.66712 | 28158 ft | 487 kts | 124° |
| 2026-04-21 19:06 | 45.00058 | 7.70656 | 27743 ft | 482 kts | 124° |
| 2026-04-21 19:06 | 44.98192 | 7.74516 | 27314 ft | 477 kts | 124° |
| 2026-04-21 19:06 | 44.96337 | 7.78341 | 27125 ft | 465 kts | 124° |
| 2026-04-21 19:06 | 44.94533 | 7.82059 | 26901 ft | 455 kts | 124° |
| 2026-04-21 19:07 | 44.92791 | 7.85701 | 26681 ft | 445 kts | 122° |
| 2026-04-21 19:07 | 44.91201 | 7.89411 | 26464 ft | 434 kts | 119° |
| 2026-04-21 19:07 | 44.89725 | 7.93058 | 26255 ft | 424 kts | 118° |
| 2026-04-21 19:07 | 44.88285 | 7.96643 | 26035 ft | 415 kts | 118° |
| 2026-04-21 19:08 | 44.86875 | 8.00146 | 25719 ft | 409 kts | 118° |
| 2026-04-21 19:08 | 44.85484 | 8.03602 | 25233 ft | 408 kts | 119° |
| 2026-04-21 19:08 | 44.84075 | 8.07091 | 24670 ft | 409 kts | 119° |
| 2026-04-21 19:08 | 44.82677 | 8.10539 | 24121 ft | 410 kts | 118° |
| 2026-04-21 19:09 | 44.81264 | 8.14023 | 23576 ft | 411 kts | 119° |
| 2026-04-21 19:09 | 44.79834 | 8.17541 | 23038 ft | 412 kts | 119° |
| 2026-04-21 19:09 | 44.78424 | 8.21005 | 22526 ft | 412 kts | 118° |
| 2026-04-21 19:09 | 44.77013 | 8.24468 | 22288 ft | 403 kts | 119° |
| 2026-04-21 19:10 | 44.75631 | 8.27856 | 22101 ft | 393 kts | 119° |
| 2026-04-21 19:10 | 44.74286 | 8.31143 | 21926 ft | 384 kts | 119° |
| 2026-04-21 19:10 | 44.72977 | 8.34341 | 21746 ft | 374 kts | 119° |
| 2026-04-21 19:10 | 44.71693 | 8.37474 | 21504 ft | 368 kts | 119° |
| 2026-04-21 19:11 | 44.70423 | 8.40569 | 21152 ft | 365 kts | 119° |
| 2026-04-21 19:11 | 44.69158 | 8.43654 | 20779 ft | 363 kts | 119° |
| 2026-04-21 19:11 | 44.67912 | 8.46686 | 20397 ft | 361 kts | 119° |
| 2026-04-21 19:11 | 44.66659 | 8.49734 | 20042 ft | 358 kts | 119° |
| 2026-04-21 19:12 | 44.65835 | 8.51736 | 19802 ft | 356 kts | 119° |
| 2026-04-21 19:12 | 44.64186 | 8.55738 | 19325 ft | 353 kts | 119° |
| 2026-04-21 19:12 | 44.62960 | 8.58710 | 18954 ft | 351 kts | 119° |
| 2026-04-21 19:12 | 44.61745 | 8.61653 | 18595 ft | 348 kts | 119° |
| 2026-04-21 19:13 | 44.60535 | 8.64577 | 18232 ft | 346 kts | 119° |
| 2026-04-21 19:13 | 44.59340 | 8.67464 | 17867 ft | 343 kts | 120° |
| 2026-04-21 19:13 | 44.58149 | 8.70353 | 17509 ft | 341 kts | 120° |
| 2026-04-21 19:13 | 44.56970 | 8.73217 | 17160 ft | 338 kts | 120° |
| 2026-04-21 19:14 | 44.55794 | 8.76068 | 16797 ft | 335 kts | 120° |
| 2026-04-21 19:14 | 44.54639 | 8.78867 | 16543 ft | 329 kts | 120° |
| 2026-04-21 19:14 | 44.53503 | 8.81614 | 16245 ft | 325 kts | 120° |
| 2026-04-21 19:14 | 44.52381 | 8.84322 | 15913 ft | 322 kts | 120° |
| 2026-04-21 19:15 | 44.51254 | 8.87043 | 15577 ft | 319 kts | 120° |
| 2026-04-21 19:15 | 44.50155 | 8.89696 | 15268 ft | 315 kts | 120° |
| 2026-04-21 19:15 | 44.49052 | 8.92353 | 14940 ft | 313 kts | 120° |
| 2026-04-21 19:15 | 44.47962 | 8.94976 | 14631 ft | 310 kts | 120° |
| 2026-04-21 19:16 | 44.46881 | 8.97573 | 14303 ft | 307 kts | 120° |
| 2026-04-21 19:16 | 44.45814 | 9.00135 | 13958 ft | 305 kts | 120° |
| 2026-04-21 19:16 | 44.44760 | 9.02661 | 13637 ft | 302 kts | 120° |
| 2026-04-21 19:16 | 44.43683 | 9.05162 | 13332 ft | 300 kts | 126° |
| 2026-04-21 19:17 | 44.40276 | 9.07975 | 12631 ft | 284 kts | 179° |
| 2026-04-21 19:17 | 44.38324 | 9.07874 | 12283 ft | 277 kts | 191° |
| 2026-04-21 19:17 | 44.36429 | 9.07549 | 11920 ft | 276 kts | 191° |
| 2026-04-21 19:18 | 44.34516 | 9.07226 | 11574 ft | 274 kts | 190° |
| 2026-04-21 19:18 | 44.32618 | 9.06936 | 11243 ft | 272 kts | 189° |
| 2026-04-21 19:18 | 44.30740 | 9.06673 | 10950 ft | 269 kts | 188° |
| 2026-04-21 19:18 | 44.28881 | 9.06771 | 10610 ft | 273 kts | 165° |
| 2026-04-21 19:19 | 44.27211 | 9.08019 | 10242 ft | 274 kts | 143° |
| 2026-04-21 19:19 | 44.25727 | 9.09658 | 9966 ft | 270 kts | 142° |
| 2026-04-21 19:19 | 44.24260 | 9.11289 | 9717 ft | 269 kts | 142° |
| 2026-04-21 19:19 | 44.22788 | 9.12892 | 9466 ft | 268 kts | 143° |
| 2026-04-21 19:20 | 44.21319 | 9.14468 | 9272 ft | 264 kts | 143° |
| 2026-04-21 19:20 | 44.19850 | 9.16030 | 9290 ft | 266 kts | 143° |
| 2026-04-21 19:20 | 44.18366 | 9.17604 | 9288 ft | 267 kts | 143° |
| 2026-04-21 19:20 | 44.16892 | 9.19165 | 9084 ft | 266 kts | 143° |
| 2026-04-21 19:21 | 44.15415 | 9.20726 | 8881 ft | 264 kts | 143° |
| 2026-04-21 19:21 | 44.13954 | 9.22269 | 8682 ft | 262 kts | 143° |
| 2026-04-21 19:21 | 44.12504 | 9.23800 | 8488 ft | 262 kts | 143° |
| 2026-04-21 19:21 | 44.11053 | 9.25316 | 8315 ft | 260 kts | 143° |
| 2026-04-21 19:22 | 44.09593 | 9.26829 | 8161 ft | 258 kts | 143° |
| 2026-04-21 19:22 | 44.08148 | 9.28322 | 8004 ft | 257 kts | 143° |
| 2026-04-21 19:22 | 44.06726 | 9.29789 | 7856 ft | 257 kts | 143° |
| 2026-04-21 19:22 | 44.05286 | 9.31272 | 7701 ft | 256 kts | 143° |
| 2026-04-21 19:23 | 44.03924 | 9.32856 | 7535 ft | 256 kts | 127° |
| 2026-04-21 19:23 | 44.03280 | 9.35104 | 7370 ft | 254 kts | 90° |
| 2026-04-21 19:23 | 44.03721 | 9.37444 | 7228 ft | 250 kts | 56° |
| 2026-04-21 19:23 | 44.04912 | 9.39139 | 7085 ft | 248 kts | 30° |
| 2026-04-21 19:24 | 44.06531 | 9.39934 | 6934 ft | 245 kts | 4° |
| 2026-04-21 19:24 | 44.08218 | 9.39772 | 6794 ft | 244 kts | 352° |
| 2026-04-21 19:24 | 44.09904 | 9.39454 | 6647 ft | 244 kts | 353° |
| 2026-04-21 19:24 | 44.11590 | 9.39166 | 6502 ft | 244 kts | 353° |
| 2026-04-21 19:25 | 44.13284 | 9.38902 | 6387 ft | 244 kts | 354° |
| 2026-04-21 19:25 | 44.14912 | 9.38450 | 6247 ft | 237 kts | 339° |
| 2026-04-21 19:25 | 44.16334 | 9.37327 | 6112 ft | 227 kts | 324° |
| 2026-04-21 19:25 | 44.17571 | 9.36021 | 5964 ft | 219 kts | 323° |
| 2026-04-21 19:26 | 44.18761 | 9.34730 | 5808 ft | 216 kts | 323° |
| 2026-04-21 19:26 | 44.19920 | 9.33483 | 5683 ft | 206 kts | 323° |
| 2026-04-21 19:26 | 44.21022 | 9.32307 | 5599 ft | 195 kts | 324° |
| 2026-04-21 19:26 | 44.22108 | 9.31154 | 5444 ft | 194 kts | 324° |
| 2026-04-21 19:27 | 44.23183 | 9.30019 | 5290 ft | 194 kts | 324° |
| 2026-04-21 19:27 | 44.24260 | 9.28882 | 5150 ft | 194 kts | 324° |
| 2026-04-21 19:27 | 44.25343 | 9.27733 | 5001 ft | 195 kts | 325° |
| 2026-04-21 19:27 | 44.26418 | 9.26596 | 4859 ft | 195 kts | 325° |
| 2026-04-21 19:28 | 44.27503 | 9.25447 | 4703 ft | 195 kts | 325° |
| 2026-04-21 19:28 | 44.28594 | 9.24294 | 4553 ft | 196 kts | 325° |
| 2026-04-21 19:28 | 44.29680 | 9.23148 | 4431 ft | 194 kts | 325° |
| 2026-04-21 19:28 | 44.30753 | 9.22012 | 4466 ft | 195 kts | 325° |
| 2026-04-21 19:29 | 44.31838 | 9.20863 | 4472 ft | 195 kts | 325° |
| 2026-04-21 19:29 | 44.32872 | 9.19598 | 4467 ft | 197 kts | 312° |
| 2026-04-21 19:29 | 44.33612 | 9.17981 | 4477 ft | 198 kts | 297° |
| 2026-04-21 19:29 | 44.34141 | 9.16206 | 4479 ft | 199 kts | 292° |
| 2026-04-21 19:30 | 44.34613 | 9.14378 | 4361 ft | 199 kts | 290° |
| 2026-04-21 19:30 | 44.35045 | 9.12548 | 4097 ft | 199 kts | 289° |
| 2026-04-21 19:30 | 44.35454 | 9.10698 | 3813 ft | 199 kts | 288° |
| 2026-04-21 19:30 | 44.35854 | 9.08850 | 3538 ft | 199 kts | 288° |
| 2026-04-21 19:31 | 44.36250 | 9.07010 | 3260 ft | 199 kts | 288° |
| 2026-04-21 19:31 | 44.36650 | 9.05160 | 2978 ft | 200 kts | 288° |
| 2026-04-21 19:31 | 44.37055 | 9.03293 | 2698 ft | 199 kts | 288° |
| 2026-04-21 19:31 | 44.37450 | 9.01474 | 2418 ft | 194 kts | 288° |
| 2026-04-21 19:32 | 44.37833 | 8.99716 | 2167 ft | 182 kts | 289° |
| 2026-04-21 19:32 | 44.38194 | 8.98063 | 1905 ft | 179 kts | 289° |
| 2026-04-21 19:32 | 44.38553 | 8.96427 | 1668 ft | 172 kts | 289° |
| 2026-04-21 19:32 | 44.38890 | 8.94886 | 1411 ft | 158 kts | 289° |
| 2026-04-21 19:33 | 44.39111 | 8.93928 | 1233 ft | 153 kts | 290° |
| 2026-04-21 19:33 | 44.39557 | 8.92075 | 986 ft | 150 kts | 287° |
| 2026-04-21 19:33 | 44.39854 | 8.90682 | 842 ft | 149 kts | 288° |
| 2026-04-21 19:33 | 44.40152 | 8.89329 | 627 ft | 145 kts | 287° |
| 2026-04-21 19:34 | 44.40435 | 8.87964 | 420 ft | 143 kts | 286° |
| 2026-04-21 19:34 | 44.40710 | 8.86647 | 209 ft | 138 kts | 285° |
| 2026-04-21 19:34 | 44.40965 | 8.85364 | 35 ft | 136 kts | 284° |
| 2026-04-21 19:34 | 44.41188 | 8.84224 | 19 ft | 100 kts | 285° |
| 2026-04-21 19:35 | 44.41328 | 8.83509 | 19 ft | 50 kts | 286° |
| 2026-04-21 19:35 | 44.41533 | 8.83098 | 19 ft | 12 kts | 33° |
| 2026-04-21 19:35 | 44.41545 | 8.83206 | 19 ft | 9 kts | 106° |
| 2026-04-21 19:36 | 44.41525 | 8.83300 | 19 ft | 10 kts | 105° |
| 2026-04-21 19:36 | 44.41504 | 8.83405 | 19 ft | 11 kts | 105° |
| 2026-04-21 19:36 | 44.41486 | 8.83493 | 19 ft | 9 kts | 107° |
| 2026-04-21 19:36 | 44.41468 | 8.83588 | 19 ft | 10 kts | 104° |
| 2026-04-21 19:37 | 44.41447 | 8.83690 | 19 ft | 11 kts | 106° |
| 2026-04-21 19:37 | 44.41427 | 8.83799 | 19 ft | 11 kts | 104° |
| 2026-04-21 19:37 | 44.41405 | 8.83911 | 19 ft | 12 kts | 106° |
| 2026-04-21 19:37 | 44.41381 | 8.84032 | 19 ft | 13 kts | 105° |
| 2026-04-21 19:38 | 44.41354 | 8.84171 | 19 ft | 15 kts | 107° |
| 2026-04-21 19:38 | 44.41325 | 8.84320 | 19 ft | 15 kts | 105° |
| 2026-04-21 19:38 | 44.41323 | 8.84416 | 21 ft | 14 kts | 67° |
| 2026-04-21 19:38 | 44.41398 | 8.84553 | 23 ft | 12 kts | 53° |
| 2026-04-21 19:39 | 44.41447 | 8.84642 | 27 ft | 9 kts | 52° |
| 2026-04-21 19:39 | 44.41484 | 8.84708 | 29 ft | 8 kts | 52° |
| 2026-04-21 19:39 | 44.41526 | 8.84786 | 31 ft | 11 kts | 52° |
| 2026-04-21 19:39 | 44.41582 | 8.84887 | 31 ft | 14 kts | 51° |
| 2026-04-21 19:40 | 44.41633 | 8.84968 | 32 ft | 6 kts | 58° |
| 2026-04-21 19:40 | 44.41632 | 8.84987 | 32 ft | 2 kts | 115° |
| 2026-04-21 19:40 | 44.41611 | 8.85011 | 32 ft | 3 kts | 188° |
| 2026-04-21 19:40 | 44.41603 | 8.85008 | 32 ft | 1 kts | 195° |
| 2026-04-21 19:41 | 44.41602 | 8.85008 | 32 ft | 0 kts | 195° |